Time;durP1;ratioP1;P1;durP2;ratioP2;P2;SDS_P1;SDS_P2;PMS_P1;PMS_P2;Temp;Humidity;BMP_temperature;BMP_pressure;BME280_temperature;BME280_humidity;BME280_pressure;Samples;Min_cycle;Max_cycle;Signal;HPM_P1;HPM_P2
2021/08/13 00:00:15;;;;;;;11.57;7.40;;;;;;;23.47;67.07;100868.00;4994858;28;20022;-67
2021/08/13 00:02:40;;;;;;;10.90;7.20;;;;;;;23.45;67.01;100864.50;4994771;28;20030;-70
2021/08/13 00:05:06;;;;;;;11.52;7.20;;;;;;;23.36;67.01;100835.63;4994720;28;20036;-67
2021/08/13 00:07:32;;;;;;;12.88;7.05;;;;;;;23.34;66.91;100826.88;4994684;28;20121;-67
2021/08/13 00:09:57;;;;;;;10.20;7.05;;;;;;;23.50;67.07;100877.66;4995244;28;20109;-67
2021/08/13 00:12:23;;;;;;;9.57;7.40;;;;;;;23.39;67.58;100872.47;4994887;28;20050;-67
2021/08/13 00:14:48;;;;;;;11.02;6.95;;;;;;;23.54;66.69;100871.44;4994674;28;20038;-67
2021/08/13 00:17:14;;;;;;;10.30;7.03;;;;;;;23.47;67.14;100861.88;4994558;28;20528;-67
2021/08/13 00:19:39;;;;;;;10.43;7.53;;;;;;;23.42;67.58;100862.78;4994722;28;20030;-67
2021/08/13 00:22:05;;;;;;;8.70;7.10;;;;;;;23.50;66.94;100867.09;4994530;28;20023;-67
2021/08/13 00:24:30;;;;;;;11.48;7.22;;;;;;;23.39;66.70;100865.47;4994589;28;20466;-67
2021/08/13 00:26:55;;;;;;;11.48;7.15;;;;;;;22.99;67.98;100828.94;4994483;28;20473;-67
2021/08/13 00:29:21;;;;;;;11.50;7.32;;;;;;;22.98;69.24;100857.88;4994524;28;20448;-67
2021/08/13 00:31:46;;;;;;;8.60;6.88;;;;;;;23.05;68.52;100864.84;4994615;28;20022;-67
2021/08/13 00:34:12;;;;;;;10.07;7.30;;;;;;;23.13;68.08;100862.16;4994367;28;20030;-67
2021/08/13 00:36:39;;;;;;;8.50;6.60;;;;;;;23.00;67.80;100866.66;4993076;28;20442;-67
2021/08/13 00:39:04;;;;;;;10.57;7.25;;;;;;;22.95;67.61;100835.09;4994392;28;20042;-68
2021/08/13 00:41:30;;;;;;;12.52;7.60;;;;;;;22.85;69.05;100868.50;4994397;28;20027;-67
2021/08/13 00:43:55;;;;;;;9.50;7.60;;;;;;;22.71;69.58;100867.75;4994034;28;20030;-68
2021/08/13 00:46:21;;;;;;;10.15;7.35;;;;;;;22.71;68.83;100865.13;4994020;28;20026;-67
2021/08/13 00:48:46;;;;;;;11.30;7.95;;;;;;;22.77;68.78;100862.44;4994033;28;20026;-67
2021/08/13 00:51:12;;;;;;;9.02;6.95;;;;;;;22.34;70.17;100829.34;4993712;28;20055;-67
2021/08/13 00:53:38;;;;;;;10.38;7.38;;;;;;;22.54;69.74;100859.97;4994018;28;20061;-67
2021/08/13 00:56:04;;;;;;;9.45;7.50;;;;;;;22.59;69.59;100859.06;4993752;28;20469;-67
2021/08/13 00:58:30;;;;;;;11.75;8.07;;;;;;;22.65;69.13;100870.44;4994484;28;20089;-68
2021/08/13 01:00:57;;;;;;;11.40;7.38;;;;;;;22.62;69.20;100850.28;4992769;28;20037;-67
2021/08/13 01:03:22;;;;;;;11.32;7.38;;;;;;;22.69;69.05;100861.63;4991647;28;20061;-65
2021/08/13 01:05:48;;;;;;;8.60;7.70;;;;;;;22.44;70.32;100856.50;4993464;28;20484;-67
2021/08/13 01:08:13;;;;;;;10.40;7.50;;;;;;;22.47;70.43;100869.66;4993869;28;20034;-67
2021/08/13 01:11:01;;;;;;;9.63;7.82;;;;;;;22.39;69.69;100837.25;4994027;28;20030;-67
2021/08/13 01:13:37;;;;;;;12.25;8.15;;;;;;;22.68;69.06;100865.13;4993771;28;20121;-67
2021/08/13 01:16:03;;;;;;;11.60;7.10;;;;;;;22.67;68.97;100866.00;4993193;28;20053;-67
2021/08/13 01:18:37;;;;;;;9.07;7.35;;;;;;;22.64;68.93;100869.53;4993632;28;20443;-67
2021/08/13 01:21:08;;;;;;;10.13;7.15;;;;;;;22.62;69.13;100868.69;4993820;28;20105;-67
2021/08/13 01:23:52;;;;;;;11.07;7.90;;;;;;;22.80;68.64;100867.69;4993653;28;20081;-67
2021/08/13 01:26:19;;;;;;;10.60;6.95;;;;;;;22.84;68.80;100861.53;4993358;28;20081;-67
2021/08/13 01:29:02;;;;;;;15.82;8.32;;;;;;;22.80;69.09;100861.56;4991290;28;20117;-67
2021/08/13 01:31:27;;;;;;;13.25;7.13;;;;;;;23.02;68.93;100865.75;4991171;28;20038;-67
2021/08/13 01:34:04;;;;;;;13.02;7.50;;;;;;;23.19;69.01;100872.66;4993269;28;20572;-67
2021/08/13 01:36:31;;;;;;;17.05;8.10;;;;;;;23.15;69.70;100868.28;4993255;28;20501;-67
2021/08/13 01:39:02;;;;;;;10.13;7.32;;;;;;;23.10;71.01;100885.00;4992831;28;20035;-69
2021/08/13 01:41:35;;;;;;;11.68;7.78;;;;;;;22.93;71.44;100879.00;4993081;28;20033;-67
2021/08/13 01:44:07;;;;;;;9.65;7.60;;;;;;;23.02;70.85;100884.19;4992889;28;20034;-67
2021/08/13 01:46:33;;;;;;;14.18;7.55;;;;;;;23.10;70.65;100884.13;4992868;28;20564;-67
2021/08/13 01:49:00;;;;;;;11.82;7.80;;;;;;;23.20;70.44;100874.41;4992849;28;20064;-67
2021/08/13 01:51:27;;;;;;;10.95;8.18;;;;;;;23.29;69.65;100876.09;4992839;28;20046;-70
2021/08/13 01:53:52;;;;;;;16.35;7.50;;;;;;;23.31;69.79;100883.09;4990920;28;20081;-67
2021/08/13 01:56:18;;;;;;;10.77;7.88;;;;;;;23.11;69.80;100859.53;4992677;28;20050;-67
2021/08/13 01:58:45;;;;;;;13.32;8.63;;;;;;;22.93;70.51;100834.25;4992911;28;20022;-67
2021/08/13 02:01:11;;;;;;;12.38;8.73;;;;;;;23.12;70.65;100892.03;4992620;28;20549;-67
2021/08/13 02:03:38;;;;;;;12.57;8.93;;;;;;;23.10;71.24;100890.28;4992553;28;20105;-67
2021/08/13 02:06:05;;;;;;;16.73;9.40;;;;;;;23.12;70.79;100877.09;4992416;28;20054;-70
2021/08/13 02:08:32;;;;;;;13.05;8.25;;;;;;;23.17;69.80;100888.50;4993016;28;20026;-67
2021/08/13 02:10:58;;;;;;;12.57;8.68;;;;;;;23.08;70.05;100880.66;4992918;28;20035;-67
2021/08/13 02:13:24;;;;;;;14.05;9.45;;;;;;;23.05;69.77;100873.66;4992710;28;20100;-65
2021/08/13 02:16:00;;;;;;;13.43;8.60;;;;;;;23.00;69.85;100893.84;4992563;28;20038;-67
2021/08/13 02:18:29;;;;;;;17.85;8.95;;;;;;;22.98;70.46;100893.00;4992560;28;20027;-69
2021/08/13 02:20:56;;;;;;;12.63;9.13;;;;;;;22.94;70.34;100909.69;4992225;28;20030;-67
2021/08/13 02:23:22;;;;;;;20.05;9.63;;;;;;;22.56;72.02;100895.03;4992296;28;20030;-67
2021/08/13 02:25:48;;;;;;;15.00;9.48;;;;;;;22.64;71.47;100901.13;4991769;28;20088;-67
2021/08/13 02:28:13;;;;;;;12.82;9.93;;;;;;;22.71;71.13;100897.56;4992467;28;20026;-67
2021/08/13 02:30:39;;;;;;;11.43;9.35;;;;;;;22.83;70.73;100912.44;4992450;28;20160;-68
2021/08/13 02:33:06;;;;;;;11.52;9.00;;;;;;;22.83;70.91;100916.78;4992515;28;20023;-67
2021/08/13 02:35:32;;;;;;;11.27;9.45;;;;;;;22.66;70.38;100909.88;4992530;28;20042;-67
2021/08/13 02:38:06;;;;;;;16.20;9.90;;;;;;;22.57;71.02;100905.56;4992286;28;20499;-67
2021/08/13 02:40:36;;;;;;;14.43;9.95;;;;;;;22.57;71.80;100913.44;4992225;28;20093;-67
2021/08/13 02:43:04;;;;;;;14.65;9.18;;;;;;;22.55;71.29;100927.50;4992139;28;20113;-68
2021/08/13 02:45:35;;;;;;;12.60;8.90;;;;;;;22.19;70.56;100884.69;4992144;28;20492;-67
2021/08/13 02:48:04;;;;;;;13.30;8.98;;;;;;;22.33;70.59;100921.44;4992010;28;20034;-67
2021/08/13 02:50:32;;;;;;;11.50;9.10;;;;;;;22.06;71.40;100925.94;4992294;28;20513;-67
2021/08/13 02:53:02;;;;;;;13.48;9.02;;;;;;;22.01;71.70;100923.31;4992472;28;20129;-67
2021/08/13 02:55:39;;;;;;;13.43;9.60;;;;;;;21.98;71.61;100921.56;4992215;28;20030;-67
2021/08/13 02:58:11;;;;;;;16.13;9.43;;;;;;;21.80;72.13;100935.63;4992349;28;20033;-67
2021/08/13 03:00:41;;;;;;;15.23;8.93;;;;;;;21.88;72.14;100934.72;4991821;28;20077;-67
2021/08/13 03:03:09;;;;;;;18.83;9.48;;;;;;;21.75;72.62;100940.00;4992198;28;20048;-67
2021/08/13 03:05:39;;;;;;;20.40;9.48;;;;;;;21.54;73.45;100919.00;4991979;28;20082;-67
2021/08/13 03:08:09;;;;;;;19.20;8.88;;;;;;;21.69;72.37;100940.03;4992078;28;20023;-66
2021/08/13 03:10:35;;;;;;;17.17;9.38;;;;;;;21.62;72.81;100930.38;4991892;28;20064;-67
2021/08/13 03:13:01;;;;;;;20.05;9.05;;;;;;;21.59;73.14;100940.91;4992186;28;20413;-67
2021/08/13 03:15:28;;;;;;;15.95;9.60;;;;;;;21.71;72.53;100930.41;4991997;28;20485;-67
2021/08/13 03:17:54;;;;;;;15.10;9.13;;;;;;;21.73;72.81;100941.78;4992048;28;20035;-67
2021/08/13 03:20:20;;;;;;;17.08;9.23;;;;;;;21.65;73.05;100906.75;4991918;28;20029;-67
2021/08/13 03:22:46;;;;;;;19.88;9.27;;;;;;;22.01;72.27;100931.19;4991952;28;20026;-67
2021/08/13 03:25:12;;;;;;;14.00;9.48;;;;;;;22.21;71.91;100938.16;4991775;28;20092;-68
2021/08/13 03:27:41;;;;;;;14.82;8.85;;;;;;;22.28;71.87;100934.59;4991927;28;20031;-67
2021/08/13 03:30:06;;;;;;;17.05;8.95;;;;;;;22.37;72.05;100938.94;4991778;28;20137;-67
2021/08/13 03:32:32;;;;;;;13.07;9.18;;;;;;;22.42;71.56;100940.72;4991914;28;20058;-67
2021/08/13 03:34:58;;;;;;;16.30;9.10;;;;;;;21.98;72.87;100941.72;4991845;28;20108;-67
2021/08/13 03:37:24;;;;;;;23.00;9.45;;;;;;;21.92;71.38;100947.88;4992427;28;20120;-65
2021/08/13 03:39:49;;;;;;;18.65;9.13;;;;;;;21.89;71.85;100952.25;4995347;28;20023;-67
2021/08/13 03:42:15;;;;;;;19.27;9.57;;;;;;;21.70;72.97;100959.31;4993903;28;20034;-67
2021/08/13 03:44:40;;;;;;;28.67;10.77;;;;;;;21.24;73.69;100947.88;4995279;28;20057;-67
2021/08/13 03:47:06;;;;;;;17.73;10.32;;;;;;;21.26;73.86;100943.53;4995095;28;20032;-67
2021/08/13 03:49:31;;;;;;;15.52;10.25;;;;;;;21.39;73.02;100947.00;4995480;28;20029;-67
2021/08/13 03:51:57;;;;;;;19.27;10.73;;;;;;;21.43;73.07;100961.94;4995193;28;20046;-67
2021/08/13 03:54:23;;;;;;;21.48;10.52;;;;;;;21.25;73.95;100939.13;4976869;28;20038;-67
2021/08/13 03:56:49;;;;;;;21.30;10.95;;;;;;;21.14;74.56;100939.13;4995123;28;20473;-66
2021/08/13 03:59:14;;;;;;;15.50;10.85;;;;;;;21.26;74.14;100956.66;4995105;28;20042;-67
2021/08/13 04:01:40;;;;;;;15.07;11.43;;;;;;;21.25;74.65;100959.28;4995338;28;20035;-67
2021/08/13 04:04:05;;;;;;;23.10;11.07;;;;;;;21.28;74.87;100948.78;4994760;28;20037;-67
2021/08/13 04:06:31;;;;;;;19.48;10.80;;;;;;;21.26;74.92;100940.91;4994722;28;20032;-67
2021/08/13 04:08:56;;;;;;;16.73;10.82;;;;;;;20.96;75.10;100903.25;4994804;28;20073;-70
2021/08/13 04:11:22;;;;;;;20.60;11.68;;;;;;;21.37;74.12;100958.41;4994780;28;20065;-67
2021/08/13 04:13:47;;;;;;;20.80;11.55;;;;;;;21.32;74.88;100948.78;4995077;28;20030;-67
2021/08/13 04:16:13;;;;;;;20.42;11.98;;;;;;;21.37;74.86;100947.91;4994938;28;20034;-67
2021/08/13 04:18:38;;;;;;;26.05;11.90;;;;;;;21.42;74.59;100944.41;4994793;28;20027;-66
2021/08/13 04:21:04;;;;;;;16.33;11.18;;;;;;;21.43;74.45;100950.53;4993463;28;20092;-67
2021/08/13 04:23:29;;;;;;;20.35;10.57;;;;;;;21.47;74.65;100955.78;4994620;28;20421;-67
2021/08/13 04:25:56;;;;;;;16.85;11.27;;;;;;;21.56;74.52;100951.41;4994217;28;20038;-67
2021/08/13 04:28:21;;;;;;;15.27;11.60;;;;;;;21.67;75.11;100952.31;4994601;28;20019;-70
2021/08/13 04:30:47;;;;;;;23.33;11.82;;;;;;;21.54;75.02;100946.13;4994542;28;20469;-67
2021/08/13 04:33:14;;;;;;;16.05;10.48;;;;;;;21.63;75.67;100955.78;4994676;28;20105;-67
2021/08/13 04:35:40;;;;;;;19.42;11.30;;;;;;;21.66;74.30;100945.28;4976308;28;20100;-67
2021/08/13 04:38:06;;;;;;;18.35;11.52;;;;;;;21.92;73.67;100960.13;4994607;28;20023;-67
2021/08/13 04:40:33;;;;;;;21.08;11.75;;;;;;;21.91;74.63;100961.03;4994708;28;20110;-67
2021/08/13 04:42:59;;;;;;;18.42;11.13;;;;;;;21.91;74.21;100964.50;4994246;28;20022;-67
2021/08/13 04:45:25;;;;;;;18.10;10.90;;;;;;;21.54;75.20;100929.50;4994104;28;20061;-67
2021/08/13 04:47:50;;;;;;;19.75;11.45;;;;;;;21.73;74.82;100960.19;4994256;28;20030;-67
2021/08/13 04:50:16;;;;;;;20.30;12.00;;;;;;;21.82;75.96;100972.44;4993118;28;20443;-67
2021/08/13 04:52:47;;;;;;;22.45;11.15;;;;;;;21.72;75.63;100958.44;4994124;28;20050;-71
2021/08/13 04:55:16;;;;;;;19.20;11.20;;;;;;;21.79;77.17;100978.56;4993769;28;20022;-67
2021/08/13 04:57:42;;;;;;;18.92;11.45;;;;;;;21.64;77.44;100981.19;4993931;28;20034;-67
2021/08/13 05:00:08;;;;;;;22.10;10.60;;;;;;;21.81;77.08;100979.44;4994038;28;20041;-66
2021/08/13 05:02:35;;;;;;;21.73;11.70;;;;;;;21.91;76.64;100955.78;4993858;28;20045;-67
2021/08/13 05:05:01;;;;;;;20.25;11.30;;;;;;;22.02;75.76;100946.09;4993775;28;20386;-67
2021/08/13 05:07:31;;;;;;;21.92;11.70;;;;;;;22.37;76.29;100994.19;4993484;28;20061;-67
2021/08/13 05:09:57;;;;;;;18.63;11.85;;;;;;;22.48;76.31;100986.28;4993797;28;20064;-67
2021/08/13 05:12:23;;;;;;;16.60;10.52;;;;;;;22.58;76.01;100991.50;4993812;28;20038;-67
2021/08/13 05:14:49;;;;;;;29.45;12.23;;;;;;;22.65;76.55;100991.50;4993665;28;20496;-66
2021/08/13 05:17:15;;;;;;;27.60;10.85;;;;;;;22.66;75.27;100998.50;4993558;28;20393;-67
2021/08/13 05:19:40;;;;;;;26.48;11.30;;;;;;;22.69;75.48;100993.22;4993350;28;20121;-67
2021/08/13 05:22:09;;;;;;;25.02;12.68;;;;;;;22.70;76.74;101001.09;4993449;28;20030;-67
2021/08/13 05:24:35;;;;;;;26.98;12.25;;;;;;;22.66;77.73;101002.00;4993143;28;20516;-67
2021/08/13 05:27:00;;;;;;;24.58;12.57;;;;;;;22.61;77.50;100994.13;4993071;28;20061;-67
2021/08/13 05:29:25;;;;;;;24.92;11.38;;;;;;;22.75;77.38;101008.97;4993498;28;20639;-68
2021/08/13 05:31:51;;;;;;;16.33;11.07;;;;;;;22.67;77.86;100966.91;4993301;28;20405;-67
2021/08/13 05:34:16;;;;;;;17.90;11.18;;;;;;;22.98;75.99;101008.88;4993308;28;20040;-67
2021/08/13 05:36:42;;;;;;;14.10;10.65;;;;;;;23.12;76.30;101018.44;4991815;28;20026;-72
2021/08/13 05:39:07;;;;;;;17.45;11.13;;;;;;;23.10;76.24;101006.16;4993501;28;20034;-67
2021/08/13 05:41:33;;;;;;;17.50;11.27;;;;;;;23.13;77.03;101020.16;4993058;28;20105;-67
2021/08/13 05:43:58;;;;;;;17.58;10.95;;;;;;;23.09;77.49;101025.47;4992986;28;20026;-67
2021/08/13 05:46:23;;;;;;;13.48;10.52;;;;;;;23.16;76.57;101021.06;4992951;28;20428;-67
2021/08/13 05:48:49;;;;;;;18.67;11.70;;;;;;;23.20;76.93;101025.44;4992793;28;20037;-67
2021/08/13 05:51:14;;;;;;;15.27;11.10;;;;;;;23.29;76.19;101026.25;4992604;28;20089;-67
2021/08/13 05:53:40;;;;;;;14.60;10.90;;;;;;;23.45;76.37;101032.28;4992781;28;20039;-66
2021/08/13 05:56:05;;;;;;;18.17;11.90;;;;;;;23.42;76.69;101002.44;4992730;28;20492;-67
2021/08/13 05:58:31;;;;;;;19.77;10.90;;;;;;;23.79;76.30;101024.09;4992902;28;20023;-67
2021/08/13 06:00:56;;;;;;;20.35;10.68;;;;;;;24.01;75.91;101030.97;4992443;28;20031;-67
2021/08/13 06:03:21;;;;;;;15.50;10.27;;;;;;;23.93;75.90;101005.56;4992639;28;20023;-67
2021/08/13 06:05:50;;;;;;;14.48;10.10;;;;;;;24.27;75.52;101035.09;4992484;28;20030;-67
2021/08/13 06:08:15;;;;;;;12.40;9.52;;;;;;;24.48;74.22;101035.75;4992940;28;20050;-67
2021/08/13 06:10:41;;;;;;;12.13;9.45;;;;;;;24.43;73.76;101029.66;4992718;28;20061;-67
2021/08/13 06:13:06;;;;;;;16.48;9.93;;;;;;;24.53;74.23;101029.50;4992483;28;20029;-67
2021/08/13 06:15:32;;;;;;;10.57;8.45;;;;;;;24.69;73.84;101032.84;4992510;28;20038;-67
2021/08/13 06:17:57;;;;;;;13.20;8.75;;;;;;;24.72;72.40;101031.94;4992495;28;20033;-67
2021/08/13 06:20:25;;;;;;;17.70;8.95;;;;;;;24.68;72.89;101003.84;4992538;28;20027;-67
2021/08/13 06:22:50;;;;;;;15.63;9.90;;;;;;;24.97;71.64;101032.50;4992343;28;20470;-67
2021/08/13 06:25:16;;;;;;;15.98;8.65;;;;;;;25.09;71.40;101027.94;4992566;28;20033;-67
2021/08/13 06:27:45;;;;;;;10.55;8.05;;;;;;;25.15;70.98;101030.50;4990486;28;20041;-67
2021/08/13 06:30:14;;;;;;;13.25;8.27;;;;;;;25.20;70.20;101029.50;4992385;28;20026;-67
2021/08/13 06:32:39;;;;;;;11.05;8.07;;;;;;;25.18;70.18;101038.38;4991083;28;20045;-67
2021/08/13 06:35:08;;;;;;;12.00;8.73;;;;;;;25.28;69.27;101039.97;4992249;28;20479;-67
2021/08/13 06:37:43;;;;;;;11.02;8.40;;;;;;;25.29;70.84;101035.56;4992502;28;20105;-67
2021/08/13 06:40:09;;;;;;;12.88;7.97;;;;;;;25.40;70.15;101032.81;4992561;28;20031;-73
2021/08/13 06:42:34;;;;;;;14.05;8.13;;;;;;;25.38;68.83;101042.53;4992443;28;20034;-69
2021/08/13 06:45:00;;;;;;;15.07;8.18;;;;;;;25.40;68.21;101041.59;4992240;28;20042;-67
2021/08/13 06:47:26;;;;;;;13.32;8.32;;;;;;;25.54;69.16;101041.38;4991951;28;20045;-73
2021/08/13 06:49:52;;;;;;;11.10;8.70;;;;;;;25.73;68.52;101038.41;4992167;28;20061;-66
2021/08/13 06:52:17;;;;;;;11.70;8.05;;;;;;;25.78;66.84;101041.84;4992197;28;20042;-67
2021/08/13 06:54:43;;;;;;;10.10;7.80;;;;;;;25.85;66.18;101040.84;4992273;28;20018;-70
2021/08/13 06:57:08;;;;;;;10.77;7.90;;;;;;;26.05;66.65;101039.63;4992280;28;20408;-67
2021/08/13 06:59:33;;;;;;;10.75;8.68;;;;;;;26.15;68.03;101046.53;4990871;28;20048;-66
2021/08/13 07:01:59;;;;;;;13.10;8.18;;;;;;;26.21;66.98;101038.47;4990622;28;20485;-68
2021/08/13 07:04:24;;;;;;;10.63;8.55;;;;;;;26.21;67.75;101045.56;4992083;28;20445;-67
2021/08/13 07:06:50;;;;;;;21.20;9.75;;;;;;;26.14;68.91;101045.66;4991994;28;20485;-67
2021/08/13 07:09:15;;;;;;;13.38;9.57;;;;;;;26.17;67.33;101047.38;4992135;28;20038;-71
2021/08/13 07:11:41;;;;;;;14.73;9.20;;;;;;;26.00;67.65;101047.66;4992167;28;20042;-67
2021/08/13 07:14:06;;;;;;;16.60;10.20;;;;;;;26.08;69.35;101044.88;4995756;28;20042;-67
2021/08/13 07:16:32;;;;;;;16.10;9.50;;;;;;;26.16;69.09;101050.94;4995562;28;20058;-67
2021/08/13 07:18:57;;;;;;;12.35;8.63;;;;;;;26.19;66.44;101026.19;4995753;28;20500;-67
2021/08/13 07:21:22;;;;;;;18.60;9.45;;;;;;;26.32;67.24;101046.22;4996021;28;20388;-67
2021/08/13 07:23:48;;;;;;;15.20;8.25;;;;;;;26.07;66.62;101032.56;4995586;28;20066;-67
2021/08/13 07:26:13;;;;;;;19.67;9.23;;;;;;;26.25;68.67;101031.34;4995477;28;20452;-67
2021/08/13 07:28:39;;;;;;;11.18;8.68;;;;;;;26.06;66.10;100996.44;4995999;28;20034;-67
2021/08/13 07:31:04;;;;;;;14.65;9.20;;;;;;;26.40;66.52;101032.81;4995556;28;20484;-67
2021/08/13 07:33:30;;;;;;;12.63;7.05;;;;;;;26.50;63.32;101033.50;4995409;28;20026;-67
2021/08/13 07:35:55;;;;;;;12.38;7.32;;;;;;;26.61;62.92;101000.59;4995654;28;20105;-67
2021/08/13 07:38:20;;;;;;;11.88;7.15;;;;;;;26.64;61.82;101011.13;4995554;28;20037;-67
2021/08/13 07:40:46;;;;;;;10.27;6.75;;;;;;;26.84;59.79;101011.63;4995255;28;20026;-67
2021/08/13 07:43:11;;;;;;;10.60;6.47;;;;;;;27.15;59.70;101032.13;4995095;28;20030;-67
2021/08/13 07:45:37;;;;;;;11.70;6.65;;;;;;;27.35;56.77;101027.22;4994976;28;20026;-67
2021/08/13 07:48:04;;;;;;;9.00;5.93;;;;;;;27.50;52.85;101035.75;4995030;28;20046;-67
2021/08/13 07:50:29;;;;;;;11.70;5.57;;;;;;;27.66;51.66;101036.25;4976920;28;20039;-67
2021/08/13 07:52:55;;;;;;;10.63;6.30;;;;;;;27.81;54.18;101034.97;4995344;28;20100;-67
2021/08/13 07:55:20;;;;;;;11.93;6.00;;;;;;;27.88;53.41;101040.06;4995133;28;20042;-67
2021/08/13 07:57:45;;;;;;;12.57;6.15;;;;;;;28.01;52.53;101037.09;4995287;28;20389;-67
2021/08/13 08:00:11;;;;;;;9.27;6.50;;;;;;;28.11;51.43;101025.34;4994876;28;20030;-67
2021/08/13 08:02:37;;;;;;;12.00;6.75;;;;;;;28.16;51.27;101039.34;4995060;28;20100;-68
2021/08/13 08:05:02;;;;;;;10.10;5.60;;;;;;;28.11;50.51;101006.75;4960567;28;20430;-67
2021/08/13 08:07:28;;;;;;;6.85;5.40;;;;;;;28.38;49.73;101030.81;4994839;28;20026;-67
2021/08/13 08:09:53;;;;;;;8.65;5.75;;;;;;;28.34;49.49;100999.97;4994692;28;20092;-67
2021/08/13 08:12:19;;;;;;;10.07;5.28;;;;;;;28.41;49.44;101036.03;4994754;28;20406;-66
2021/08/13 08:14:44;;;;;;;9.60;5.95;;;;;;;28.58;50.75;101027.56;4995137;28;20038;-67
2021/08/13 08:17:10;;;;;;;7.78;5.60;;;;;;;28.76;49.44;101020.00;4994622;28;20121;-68
2021/08/13 08:19:35;;;;;;;7.43;5.68;;;;;;;28.48;47.73;101039.38;4994938;28;20162;-67
2021/08/13 08:22:01;;;;;;;7.63;5.50;;;;;;;28.65;46.60;101025.59;4994854;28;20027;-67
2021/08/13 08:24:26;;;;;;;9.48;6.15;;;;;;;28.68;47.37;101030.88;4993142;28;20037;-67
2021/08/13 08:26:52;;;;;;;7.60;5.20;;;;;;;28.66;48.00;101024.69;4994605;28;20023;-68
2021/08/13 08:29:18;;;;;;;10.75;5.88;;;;;;;28.80;47.38;101026.94;4994441;28;20544;-68
2021/08/13 08:31:43;;;;;;;8.07;5.07;;;;;;;28.94;46.27;101024.75;4994270;28;20050;-68
2021/08/13 08:34:09;;;;;;;10.82;5.57;;;;;;;29.00;46.20;101016.59;4994505;28;20066;-68
2021/08/13 08:36:34;;;;;;;8.73;5.10;;;;;;;29.05;43.86;100993.38;4994835;28;20473;-67
2021/08/13 08:39:00;;;;;;;10.25;5.22;;;;;;;29.10;45.20;101014.50;4994281;28;20752;-67
2021/08/13 08:41:26;;;;;;;9.40;5.93;;;;;;;29.27;47.42;101019.25;4994350;28;20026;-67
2021/08/13 08:43:52;;;;;;;7.32;5.70;;;;;;;29.42;45.30;101025.06;4993943;28;20504;-68
2021/08/13 08:46:23;;;;;;;5.68;4.78;;;;;;;29.59;45.45;101008.53;4994024;28;20023;-68
2021/08/13 08:48:50;;;;;;;9.40;5.18;;;;;;;29.70;43.14;101009.03;4994330;28;20042;-67
2021/08/13 08:51:17;;;;;;;7.63;5.35;;;;;;;29.60;42.53;101020.91;4994081;28;20050;-68
2021/08/13 08:53:49;;;;;;;10.38;5.07;;;;;;;29.68;41.66;101016.19;4994193;28;20092;-68
2021/08/13 08:56:17;;;;;;;6.47;4.75;;;;;;;29.43;41.77;100995.72;4994032;28;20030;-67
2021/08/13 08:58:45;;;;;;;7.63;5.03;;;;;;;29.42;42.44;101011.75;4993743;28;20033;-71
2021/08/13 09:01:13;;;;;;;5.80;5.20;;;;;;;29.41;42.58;101016.22;4994017;28;20030;-68
2021/08/13 09:03:41;;;;;;;7.90;4.93;;;;;;;29.38;42.36;101018.97;4993958;28;20034;-67
2021/08/13 09:06:06;;;;;;;8.35;5.32;;;;;;;29.39;41.45;100983.47;4993968;28;20485;-68
2021/08/13 09:08:32;;;;;;;5.90;5.03;;;;;;;29.74;43.29;101015.13;4993731;28;20029;-68
2021/08/13 09:10:58;;;;;;;10.45;5.30;;;;;;;29.70;42.05;100983.28;4993868;28;20034;-68
2021/08/13 09:13:23;;;;;;;11.55;4.88;;;;;;;29.79;42.25;100963.44;4993472;28;20022;-68
2021/08/13 09:15:51;;;;;;;7.47;5.50;;;;;;;30.01;40.96;101008.00;4993738;28;20045;-68
2021/08/13 09:18:26;;;;;;;9.32;5.78;;;;;;;30.21;40.44;101004.59;4993683;28;20168;-68
2021/08/13 09:20:56;;;;;;;8.60;5.00;;;;;;;29.97;42.06;101009.00;4993583;28;20034;-68
2021/08/13 09:23:35;;;;;;;8.30;5.18;;;;;;;29.96;41.77;100989.50;4993348;28;20031;-67
2021/08/13 09:26:13;;;;;;;6.15;4.90;;;;;;;29.89;41.97;100969.34;4993448;28;20045;-67
2021/08/13 09:28:58;;;;;;;7.03;5.07;;;;;;;30.01;41.28;100976.03;4993451;28;20030;-68
2021/08/13 09:31:35;;;;;;;7.03;5.20;;;;;;;30.36;41.80;100991.63;4993457;28;20027;-68
2021/08/13 09:34:10;;;;;;;9.52;5.07;;;;;;;30.71;41.14;101008.09;4993261;28;20034;-68
2021/08/13 09:36:53;;;;;;;6.70;5.10;;;;;;;30.76;40.28;100998.13;4993095;28;20036;-68
2021/08/13 09:39:30;;;;;;;9.52;5.07;;;;;;;30.73;42.18;101000.91;4959319;28;20039;-68
2021/08/13 09:41:58;;;;;;;10.55;5.18;;;;;;;30.94;41.28;101002.72;4993096;28;20053;-67
2021/08/13 09:44:27;;;;;;;8.00;5.68;;;;;;;30.89;41.61;101004.69;4992807;28;20555;-67
2021/08/13 09:47:04;;;;;;;8.77;5.80;;;;;;;30.86;41.98;101003.97;4993092;28;20043;-68
2021/08/13 09:49:32;;;;;;;7.50;5.35;;;;;;;30.84;42.69;101012.00;4993074;28;20041;-68
2021/08/13 09:52:19;;;;;;;7.80;5.63;;;;;;;31.06;39.36;101009.34;4992786;28;20054;-68
2021/08/13 09:54:46;;;;;;;7.50;5.00;;;;;;;31.24;37.86;101014.91;4992881;28;20034;-67
2021/08/13 09:57:14;;;;;;;6.88;5.35;;;;;;;31.29;37.97;101008.47;4992616;28;20386;-68
2021/08/13 09:59:57;;;;;;;9.10;5.82;;;;;;;30.94;38.19;101000.06;4993002;28;20100;-68
2021/08/13 10:02:22;;;;;;;10.32;5.50;;;;;;;31.29;38.02;101002.22;4992715;28;20034;-70
2021/08/13 10:04:48;;;;;;;12.95;5.82;;;;;;;31.53;37.80;100997.69;4992744;28;20075;-68
2021/08/13 10:07:20;;;;;;;14.35;6.38;;;;;;;31.29;37.44;100940.88;4958507;28;20042;-68
2021/08/13 10:09:48;;;;;;;12.18;6.57;;;;;;;31.89;37.55;101004.19;4992530;28;20445;-68
2021/08/13 10:12:14;;;;;;;12.00;6.60;;;;;;;31.93;38.73;100973.75;4992695;28;20026;-68
2021/08/13 10:14:41;;;;;;;14.05;6.40;;;;;;;32.35;36.96;100991.47;4992861;28;20033;-68
2021/08/13 10:17:11;;;;;;;8.18;5.45;;;;;;;32.57;35.93;100993.13;4992500;28;20412;-68
2021/08/13 10:19:47;;;;;;;14.50;5.60;;;;;;;32.32;35.64;100991.59;4992707;28;20033;-68
2021/08/13 10:22:14;;;;;;;7.22;4.97;;;;;;;32.27;36.02;100990.94;4992328;28;20030;-68
2021/08/13 10:24:43;;;;;;;6.30;4.78;;;;;;;32.14;35.74;100987.94;4974274;28;20413;-68
2021/08/13 10:27:14;;;;;;;9.55;5.05;;;;;;;32.13;35.58;100985.31;4992390;28;20030;-68
2021/08/13 10:29:41;;;;;;;9.35;4.80;;;;;;;32.00;35.27;100971.66;4992534;28;20617;-68
2021/08/13 10:32:07;;;;;;;12.07;5.25;;;;;;;32.05;34.74;100967.88;4992436;28;20023;-68
2021/08/13 10:34:34;;;;;;;6.97;4.90;;;;;;;32.41;34.36;100972.47;4992231;28;20030;-68
2021/08/13 10:37:09;;;;;;;8.88;4.93;;;;;;;32.36;34.74;100976.28;4992444;28;20045;-67
2021/08/13 10:39:36;;;;;;;11.50;5.10;;;;;;;32.31;34.45;100984.50;4992138;28;20030;-68
2021/08/13 10:42:04;;;;;;;12.55;6.13;;;;;;;32.31;33.98;100967.63;4992301;28;20567;-68
2021/08/13 10:44:33;;;;;;;13.07;5.40;;;;;;;32.39;33.61;100970.81;4992207;28;20015;-68
2021/08/13 10:47:07;;;;;;;12.10;6.40;;;;;;;32.17;34.22;100978.91;4992247;28;20062;-68
2021/08/13 10:49:36;;;;;;;10.30;5.13;;;;;;;32.19;33.21;100985.97;4996619;28;20072;-68
2021/08/13 10:52:06;;;;;;;9.50;4.97;;;;;;;32.32;33.28;100950.66;4996362;28;20047;-68
2021/08/13 10:54:45;;;;;;;7.38;5.10;;;;;;;32.63;32.32;100960.75;4996231;28;20038;-68
2021/08/13 10:57:14;;;;;;;10.32;5.22;;;;;;;32.59;32.48;100976.06;4996241;28;20026;-68
2021/08/13 10:59:43;;;;;;;14.30;5.43;;;;;;;32.74;31.89;100973.63;4995867;28;20037;-68
2021/08/13 11:02:19;;;;;;;11.70;4.43;;;;;;;32.91;31.62;100967.47;4994934;28;20034;-68
2021/08/13 11:04:46;;;;;;;8.18;5.20;;;;;;;33.14;33.48;100970.81;4995986;28;20034;-68
2021/08/13 11:07:53;;;;;;;8.55;4.65;;;;;;;33.46;32.17;100961.19;4996194;28;20448;-67
2021/08/13 11:10:47;;;;;;;6.95;5.25;;;;;;;33.68;29.56;100962.72;4996214;28;20454;-71
2021/08/13 11:13:13;;;;;;;6.85;4.93;;;;;;;33.28;29.63;100922.81;4900982;29;20443;-67
2021/08/13 11:15:39;;;;;;;7.53;4.55;;;;;;;33.58;28.52;100945.44;4916570;29;20197;-68
2021/08/13 11:18:32;;;;;;;7.45;4.93;;;;;;;33.26;29.39;100935.44;4916659;29;20052;-67